Time;durP1;ratioP1;P1;durP2;ratioP2;P2;SDS_P1;SDS_P2;PMS_P1;PMS_P2;Temp;Humidity;BMP_temperature;BMP_pressure;BME280_temperature;BME280_humidity;BME280_pressure;Samples;Min_cycle;Max_cycle;Signal;HPM_P1;HPM_P2
2022/08/14 00:00:40;;;;;;;38.03;20.30;;;;;;;19.44;58.58;100030.66;6222611;23;20000;-91
2022/08/14 00:03:59;;;;;;;32.22;18.08;;;;;;;19.77;57.44;100090.59;6254460;23;20047;-91
2022/08/14 00:06:26;;;;;;;31.48;18.90;;;;;;;19.49;59.44;100044.25;6228177;23;20568;-92
2022/08/14 00:09:23;;;;;;;43.38;22.77;;;;;;;19.96;61.61;100128.72;6262384;22;20024;-89
2022/08/14 00:11:49;;;;;;;43.00;22.27;;;;;;;19.61;62.00;100098.84;6251568;22;20028;-91
2022/08/14 00:14:15;;;;;;;34.85;22.90;;;;;;;19.77;62.70;100131.38;6252315;23;20010;-90
2022/08/14 00:16:46;;;;;;;40.67;22.17;;;;;;;19.49;62.45;100098.91;6201191;23;20000;-90
2022/08/14 00:19:42;;;;;;;41.53;23.90;;;;;;;19.15;63.09;100059.56;6253723;23;20004;-89
2022/08/14 00:22:31;;;;;;;39.33;21.40;;;;;;;19.36;61.76;100097.34;6164903;23;20027;-89
2022/08/14 00:25:31;;;;;;;39.35;21.48;;;;;;;19.51;63.29;100109.66;6085893;23;20026;-90
2022/08/14 00:32:03;;;;;;;22.00;13.23;;;;;;;19.19;58.74;100043.00;6254004;22;20035;-90
2022/08/14 00:37:38;;;;;;;29.73;12.57;;;;;;;19.85;58.11;100131.22;6215831;23;20021;-90
2022/08/14 00:40:51;;;;;;;28.52;12.85;;;;;;;19.87;59.87;100120.59;6223263;23;20259;-89
2022/08/14 00:43:21;;;;;;;18.75;11.57;;;;;;;19.85;58.56;100124.88;6219050;23;20016;31
2022/08/14 00:46:44;;;;;;;27.88;16.23;;;;;;;19.79;60.74;100116.00;6206967;22;20020;-89
2022/08/14 00:49:58;;;;;;;20.60;14.43;;;;;;;19.67;59.47;100118.84;6232537;22;20034;-89
2022/08/14 00:52:25;;;;;;;23.95;12.13;;;;;;;19.27;59.24;100055.09;6206878;22;20027;-91
2022/08/14 00:55:09;;;;;;;19.20;11.20;;;;;;;19.16;58.76;100025.13;6228971;22;20023;-91
2022/08/14 01:00:53;;;;;;;16.35;10.38;;;;;;;19.55;59.05;100075.31;6259116;22;20015;-89
2022/08/14 01:03:44;;;;;;;18.17;10.15;;;;;;;19.89;58.60;100121.03;6197773;22;20000;-90
2022/08/14 01:06:16;;;;;;;16.88;9.35;;;;;;;19.91;58.65;100115.94;6230949;22;20024;-90
2022/08/14 01:09:21;;;;;;;20.77;10.40;;;;;;;19.43;58.27;100019.91;6197674;22;20028;-89
2022/08/14 01:12:12;;;;;;;21.30;11.52;;;;;;;20.02;58.65;100123.72;6259197;22;20018;-87
2022/08/14 01:14:41;;;;;;;20.67;11.75;;;;;;;19.74;59.05;100088.53;6254162;22;20039;-87
2022/08/14 01:21:02;;;;;;;22.10;10.25;;;;;;;19.72;58.93;100088.06;6257493;22;20019;-88
2022/08/14 01:25:26;;;;;;;21.88;13.55;;;;;;;19.90;59.66;100119.06;6253552;22;20020;-89
2022/08/14 01:28:58;;;;;;;16.27;10.70;;;;;;;19.88;58.78;100124.97;6224243;23;20016;-87
2022/08/14 01:34:22;;;;;;;19.35;12.27;;;;;;;19.58;60.14;100077.38;6314156;22;20023;-91
2022/08/14 01:36:49;;;;;;;18.67;11.57;;;;;;;19.26;59.82;100032.13;6259683;22;20044;-89
2022/08/14 01:39:48;;;;;;;17.13;10.32;;;;;;;19.85;59.19;100130.44;6260606;22;20004;-91
2022/08/14 01:42:22;;;;;;;16.27;10.60;;;;;;;19.62;59.88;100089.38;6251907;22;20342;-91
2022/08/14 01:45:52;;;;;;;24.15;11.65;;;;;;;19.85;60.16;100128.47;6194540;23;20079;-91
2022/08/14 01:49:19;;;;;;;15.35;9.30;;;;;;;19.87;59.32;100122.56;6218914;23;20021;-90
2022/08/14 01:51:47;;;;;;;15.43;8.63;;;;;;;19.32;59.07;100039.03;6148923;23;20021;-90
2022/08/14 01:54:45;;;;;;;22.27;10.13;;;;;;;19.37;59.55;100054.59;6223671;23;20020;-90
2022/08/14 01:57:21;;;;;;;21.88;11.13;;;;;;;19.27;60.12;100038.47;6194794;23;20487;-90
2022/08/14 01:59:49;;;;;;;27.05;12.63;;;;;;;19.49;60.65;100080.28;6196018;23;20016;-90
2022/08/14 02:02:42;;;;;;;21.50;13.80;;;;;;;19.75;61.32;100142.84;6171867;23;20039;-90
2022/08/14 02:05:12;;;;;;;25.85;14.73;;;;;;;19.63;61.70;100129.84;6226818;22;20067;-88
2022/08/14 02:08:04;;;;;;;28.25;15.32;;;;;;;19.35;62.09;100104.88;6256447;22;20023;-90
2022/08/14 02:11:34;;;;;;;43.20;16.10;;;;;;;19.56;62.84;100140.69;6265329;22;20003;-90
2022/08/14 02:14:07;;;;;;;44.40;16.08;;;;;;;19.10;63.21;100075.63;6262520;22;20051;-91
2022/08/14 02:16:42;;;;;;;38.95;15.45;;;;;;;18.90;63.01;100058.81;6239503;22;20027;-89
2022/08/14 02:19:30;;;;;;;28.30;15.50;;;;;;;19.23;63.51;100118.75;6207650;23;20031;-90
2022/08/14 02:29:23;;;;;;;27.33;16.52;;;;;;;19.31;62.73;100156.63;6168261;23;20028;-89
2022/08/14 02:34:51;;;;;;;28.07;17.93;;;;;;;18.90;62.65;100099.56;6224376;22;20028;-90
2022/08/14 02:37:28;;;;;;;27.85;18.70;;;;;;;18.98;63.56;100129.91;6189535;23;20121;-90
2022/08/14 02:40:26;;;;;;;27.65;20.27;;;;;;;19.20;63.43;100161.03;6180639;22;20028;-90
2022/08/14 02:47:04;;;;;;;32.13;19.92;;;;;;;19.09;64.29;100166.25;6256827;22;20551;-90
2022/08/14 02:58:06;;;;;;;50.30;34.17;;;;;;;18.68;64.36;100111.94;6290387;22;20000;-91
2022/08/14 03:01:04;;;;;;;;;;;;;;;18.99;64.14;100167.56;6288505;22;20020;-90
2022/08/14 03:04:35;;;;;;;59.53;30.33;;;;;;;18.94;63.99;100173.34;6260940;22;19927;-90
2022/08/14 03:07:28;;;;;;;40.70;26.30;;;;;;;18.97;63.79;100172.66;6205813;23;20035;-90
2022/08/14 03:10:43;;;;;;;45.83;30.77;;;;;;;18.48;63.70;100097.88;6240414;22;20054;-90
2022/08/14 03:14:46;;;;;;;43.05;26.30;;;;;;;18.94;63.60;100162.25;6255129;22;20019;-90
2022/08/14 03:18:33;;;;;;;39.13;26.38;;;;;;;19.09;63.51;100168.25;6259351;22;20020;-90
2022/08/14 03:21:25;;;;;;;43.13;24.48;;;;;;;19.11;63.70;100169.50;6230880;22;20008;-89
2022/08/14 03:28:09;;;;;;;37.75;25.38;;;;;;;19.17;64.25;100181.13;6253033;23;20012;-91
2022/08/14 03:37:35;;;;;;;39.58;25.25;;;;;;;19.14;64.54;100167.97;6272720;22;20027;-90
2022/08/14 03:41:09;;;;;;;37.03;25.50;;;;;;;19.23;64.96;100182.50;6232058;22;20511;-89
2022/08/14 03:56:49;;;;;;;36.03;21.63;;;;;;;19.17;65.14;100139.56;6224025;22;20035;-89
2022/08/14 04:00:10;;;;;;;30.70;20.23;;;;;;;19.49;65.31;100176.56;6199484;23;20016;-90
2022/08/14 04:02:41;;;;;;;33.55;19.15;;;;;;;19.20;65.11;100127.78;6224042;23;20020;-89
2022/08/14 04:05:11;;;;;;;35.53;19.15;;;;;;;19.33;64.92;100126.56;6198888;22;20027;-88
2022/08/14 04:10:56;;;;;;;37.28;20.67;;;;;;;19.37;65.63;100121.13;6226209;22;20068;-91
2022/08/14 04:13:25;;;;;;;24.58;19.05;;;;;;;19.73;64.72;100164.56;6217234;23;20103;31
2022/08/14 04:16:45;;;;;;;33.58;20.60;;;;;;;19.84;65.55;100171.25;6140764;23;20035;-91
2022/08/14 04:19:38;;;;;;;31.58;20.75;;;;;;;19.60;65.19;100115.84;6170999;23;20019;-90
2022/08/14 04:25:25;;;;;;;29.88;20.60;;;;;;;19.92;65.14;100136.97;5121849;27;20117;-90
2022/08/14 04:28:16;;;;;;;31.83;20.42;;;;;;;19.70;65.62;100096.75;5107192;28;20031;-90
2022/08/14 04:30:42;;;;;;;33.97;20.13;;;;;;;19.93;64.95;100115.56;5101564;28;20039;-90
2022/08/14 04:33:10;;;;;;;27.42;19.50;;;;;;;20.13;63.45;100147.00;5100310;28;20043;-90
2022/08/14 04:36:07;;;;;;;27.48;18.13;;;;;;;19.90;63.60;100100.47;5109235;28;20065;-90
2022/08/14 05:17:53;;;;;;;32.28;19.35;;;;;;;21.11;63.62;100130.34;5563170;23;20432;-91
2022/08/14 05:25:13;;;;;;;40.40;20.00;;;;;;;21.03;64.27;100088.88;4914666;29;20078;-92
2022/08/14 05:27:50;;;;;;;33.45;19.25;;;;;;;21.21;63.95;100098.38;4914220;28;20051;-92
2022/08/14 05:30:31;;;;;;;35.97;18.95;;;;;;;21.34;63.71;100099.84;4948110;23;20134;-92
2022/08/14 05:33:24;;;;;;;28.75;18.75;;;;;;;21.92;63.61;100171.38;4923569;29;20527;-91
2022/08/14 05:36:05;;;;;;;33.83;19.63;;;;;;;21.76;63.03;100143.63;4915107;29;20024;-92
2022/08/14 05:39:04;;;;;;;31.58;19.30;;;;;;;21.84;63.72;100127.84;4942720;29;20039;-90
2022/08/14 05:41:33;;;;;;;44.67;20.15;;;;;;;21.62;63.62;100089.66;4921631;29;20047;-92
2022/08/14 05:50:05;;;;;;;38.17;19.65;;;;;;;21.81;62.93;100101.56;4985138;23;20051;-91
2022/08/14 05:58:21;;;;;;;41.10;19.10;;;;;;;22.53;63.23;100172.47;4938664;29;20098;-91
2022/08/14 06:01:49;;;;;;;40.38;19.90;;;;;;;22.63;62.97;100157.88;4925255;29;20129;-90
2022/08/14 06:32:03;;;;;;;32.42;14.40;;;;;;;23.53;59.29;100129.25;4944408;29;20425;-95
2022/08/14 06:51:03;;;;;;;46.25;13.63;;;;;;;23.82;57.74;100104.50;5032738;23;20062;-94
2022/08/14 07:09:46;;;;;;;25.42;10.45;;;;;;;24.61;55.01;100157.13;1396671;23;21103;31
2022/08/14 07:29:03;;;;;;;16.92;9.32;;;;;;;24.95;52.25;100136.56;4866931;29;20119;-89
2022/08/14 07:31:39;;;;;;;29.40;10.15;;;;;;;24.79;51.21;100100.50;4878955;29;20139;-94
2022/08/14 07:34:53;;;;;;;33.80;10.75;;;;;;;25.13;52.34;100151.47;4889758;29;20067;-93
2022/08/14 07:38:11;;;;;;;36.03;11.38;;;;;;;25.18;51.62;100151.13;4882221;29;20055;-87
2022/08/14 07:40:37;;;;;;;17.83;10.93;;;;;;;24.89;51.93;100099.75;4867786;29;20040;-88
2022/08/14 07:43:28;;;;;;;51.28;12.05;;;;;;;25.10;49.59;100115.88;4876037;23;20052;-93
2022/08/14 07:45:58;;;;;;;24.17;12.48;;;;;;;25.33;50.13;100152.00;4882246;29;20045;-90
2022/08/14 07:48:42;;;;;;;21.35;10.68;;;;;;;25.23;49.96;100121.94;4856584;29;20014;-89
2022/08/14 07:51:14;;;;;;;17.23;9.05;;;;;;;25.27;50.28;100117.19;4868717;29;20128;-88
2022/08/14 07:53:52;;;;;;;15.20;8.73;;;;;;;25.17;48.76;100089.97;4847747;23;20042;-88
2022/08/14 07:56:20;;;;;;;40.25;9.02;;;;;;;25.41;49.90;100117.22;4874611;29;20047;-94
2022/08/14 07:58:54;;;;;;;21.65;9.30;;;;;;;25.44;50.24;100107.25;4888499;29;20074;-88
2022/08/14 08:02:25;;;;;;;23.17;8.90;;;;;;;25.73;46.55;100145.34;4863906;29;20043;-88
2022/08/14 08:04:57;;;;;;;39.28;9.75;;;;;;;25.49;48.28;100107.66;4864832;23;20630;-92
2022/08/14 08:07:29;;;;;;;23.70;8.63;;;;;;;25.33;47.31;100070.00;4861775;29;20037;-90
2022/08/14 08:15:20;;;;;;;45.65;9.60;;;;;;;25.67;46.62;100107.72;4876918;29;20037;-88
2022/08/14 08:17:47;;;;;;;26.75;8.98;;;;;;;25.69;47.32;100101.72;4885149;23;20056;-91
2022/08/14 08:20:35;;;;;;;22.48;8.05;;;;;;;25.53;46.94;100069.28;4945352;23;20060;-93
2022/08/14 08:23:39;;;;;;;14.23;6.90;;;;;;;26.05;44.89;100153.03;4948093;23;20048;31
2022/08/14 08:26:28;;;;;;;28.65;6.93;;;;;;;25.81;43.71;100120.97;4846634;29;20806;-94
2022/08/14 08:29:44;;;;;;;25.33;7.88;;;;;;;26.09;44.45;100150.22;4834952;23;20097;-93
2022/08/14 08:32:56;;;;;;;25.80;6.80;;;;;;;26.12;42.54;100153.03;4867079;29;20049;-94
2022/08/14 08:39:14;;;;;;;10.65;6.47;;;;;;;26.04;44.02;100119.81;4848047;29;20038;-89
2022/08/14 08:41:47;;;;;;;30.25;6.88;;;;;;;26.03;43.56;100099.41;4831392;29;20041;-96
2022/08/14 08:44:29;;;;;;;10.25;5.47;;;;;;;25.89;41.37;100072.16;4858549;29;20054;-91
2022/08/14 08:50:29;;;;;;;15.13;6.43;;;;;;;26.48;43.15;100145.47;4986749;23;20061;-89
2022/08/14 08:53:03;;;;;;;28.37;6.60;;;;;;;26.16;41.18;100074.59;4888935;29;20028;-91
2022/08/14 08:55:49;;;;;;;16.15;6.50;;;;;;;26.59;41.47;100128.66;4860023;29;20108;-89
2022/08/14 08:58:24;;;;;;;46.35;8.13;;;;;;;26.17;42.43;100059.38;4891807;23;20061;-86
2022/08/14 09:01:14;;;;;;;102.93;10.80;;;;;;;26.72;41.26;100126.22;4855491;29;20134;-88
2022/08/14 09:04:05;;;;;;;28.98;6.45;;;;;;;26.52;40.28;100094.22;4853989;29;20066;-87
2022/08/14 09:11:36;;;;;;;33.03;7.53;;;;;;;26.75;43.01;100121.81;4897092;29;20048;-88
2022/08/14 09:14:03;;;;;;;16.10;6.22;;;;;;;26.70;43.85;100121.03;4881169;29;20462;-86
2022/08/14 09:16:29;;;;;;;9.88;5.88;;;;;;;26.47;40.60;100068.19;4855546;29;20070;-90
2022/08/14 09:21:47;;;;;;;18.20;5.72;;;;;;;26.32;39.88;100027.31;4872123;23;20523;-90
2022/08/14 09:24:14;;;;;;;41.35;7.40;;;;;;;26.52;41.27;100069.75;4858420;29;20419;-88
2022/08/14 09:30:00;;;;;;;7.75;5.30;;;;;;;27.00;40.25;100116.16;4833629;23;20087;-90
2022/08/14 09:32:42;;;;;;;9.68;5.55;;;;;;;26.89;41.40;100077.72;4847133;23;20067;-90
2022/08/14 09:35:44;;;;;;;24.55;7.72;;;;;;;27.19;41.47;100117.75;4872512;23;20156;-90
2022/08/14 09:39:10;;;;;;;29.17;7.47;;;;;;;27.15;41.85;100115.75;4822225;29;20053;-92
2022/08/14 09:42:14;;;;;;;13.63;6.32;;;;;;;27.17;41.50;100120.94;4832630;29;20082;-90
2022/08/14 09:45:22;;;;;;;21.92;6.15;;;;;;;27.30;40.52;100118.50;4821874;29;20125;-90
2022/08/14 09:48:36;;;;;;;27.15;6.20;;;;;;;27.34;39.48;100120.06;4838659;29;20619;-92
2022/08/14 09:51:53;;;;;;;9.70;6.45;;;;;;;27.36;39.80;100111.25;4833691;29;20054;-91
2022/08/14 09:54:19;;;;;;;16.63;6.28;;;;;;;26.85;40.43;100032.00;4816059;29;20452;-92
2022/08/14 09:57:05;;;;;;;17.33;6.72;;;;;;;27.02;40.07;100068.84;4834280;29;20050;-92
2022/08/14 09:59:54;;;;;;;;;;;;;;;27.34;40.09;100108.84;4751975;30;20052;-89
2022/08/14 10:02:53;;;;;;;39.92;7.68;;;;;;;27.39;38.85;100121.66;4754853;30;19933;-95
2022/08/14 10:06:17;;;;;;;30.98;7.13;;;;;;;27.46;37.89;100106.78;4766781;30;20079;-94
2022/08/14 10:13:23;;;;;;;12.38;6.20;;;;;;;27.51;41.24;100086.69;4887999;29;20092;-90
2022/08/14 10:19:03;;;;;;;47.78;7.78;;;;;;;27.73;39.20;100093.78;4876453;29;20045;-88
2022/08/14 10:22:24;;;;;;;21.45;7.28;;;;;;;27.98;39.82;100109.69;4879301;23;20117;-90
2022/08/14 10:24:50;;;;;;;16.67;5.80;;;;;;;28.14;38.35;100109.19;4857873;29;20507;-92
2022/08/14 10:34:26;;;;;;;26.95;8.10;;;;;;;28.30;38.66;100115.88;4878678;29;20049;-89
2022/08/14 10:37:37;;;;;;;19.45;6.78;;;;;;;28.14;38.84;100081.06;4844839;23;20062;-90
2022/08/14 10:40:06;;;;;;;21.52;6.78;;;;;;;28.12;38.13;100106.81;4882098;23;20080;31
2022/08/14 10:43:34;;;;;;;61.38;9.18;;;;;;;28.07;39.83;100102.41;4817682;29;20057;-89
2022/08/14 10:46:28;;;;;;;32.42;7.80;;;;;;;28.01;40.19;100108.88;4854323;23;20050;-90
2022/08/14 10:53:00;;;;;;;17.00;7.72;;;;;;;27.97;40.22;100080.81;4861196;23;20089;-90
2022/08/14 10:59:32;;;;;;;17.67;7.30;;;;;;;28.19;40.18;100106.75;4851484;23;20116;-90
2022/08/14 11:02:29;;;;;;;17.05;6.70;;;;;;;28.21;39.25;100106.31;4857538;23;20056;-92
2022/08/14 11:05:47;;;;;;;9.25;6.13;;;;;;;28.21;40.12;100109.94;4878875;23;20053;-91
2022/08/14 11:08:18;;;;;;;25.85;7.93;;;;;;;28.27;42.33;100094.22;4842804;29;20057;-91
2022/08/14 11:10:54;;;;;;;16.05;7.15;;;;;;;28.16;40.80;100070.22;4842462;29;20039;-90
2022/08/14 11:13:45;;;;;;;;;;;;;;;28.45;41.21;100090.50;4858495;29;20052;-87
2022/08/14 11:16:14;;;;;;;37.53;7.88;;;;;;;28.00;39.80;100032.19;4840588;29;19924;-89
2022/08/14 11:18:47;;;;;;;16.77;6.88;;;;;;;28.06;38.89;100041.00;4849012;29;20041;-92
2022/08/14 11:21:17;;;;;;;14.63;7.72;;;;;;;28.09;42.55;100068.28;4846458;29;20068;-92
2022/08/14 11:23:46;;;;;;;16.38;7.20;;;;;;;27.83;41.55;100030.34;4827305;29;20530;-92
2022/08/14 11:26:17;;;;;;;11.88;6.10;;;;;;;28.31;37.55;100097.00;4851984;29;20069;-91
2022/08/14 11:29:25;;;;;;;13.45;6.65;;;;;;;28.22;38.69;100069.38;4853094;29;20040;-91
2022/08/14 11:32:06;;;;;;;18.90;7.13;;;;;;;28.26;40.82;100084.19;4831887;29;20101;-90
2022/08/14 11:34:47;;;;;;;16.10;8.85;;;;;;;27.84;41.97;100007.44;4848013;29;20432;-92
2022/08/14 11:37:13;;;;;;;22.17;7.47;;;;;;;28.13;40.14;100031.69;4838832;29;20057;-88
2022/08/14 11:39:49;;;;;;;15.48;6.45;;;;;;;28.43;40.34;100059.94;4850442;29;20093;-89
2022/08/14 11:42:36;;;;;;;24.58;7.38;;;;;;;28.68;40.27;100090.66;4847423;29;20061;-90
2022/08/14 11:45:15;;;;;;;22.08;7.40;;;;;;;28.70;38.46;100090.22;4849924;29;20506;-89
2022/08/14 11:48:49;;;;;;;15.48;7.32;;;;;;;28.62;38.76;100083.88;4818819;29;20063;-89
2022/08/14 11:51:28;;;;;;;48.20;10.23;;;;;;;28.18;38.45;100039.66;4774294;30;20044;-89
2022/08/14 11:54:53;;;;;;;32.60;7.60;;;;;;;28.53;40.49;100084.38;4769124;29;20206;-91
2022/08/14 11:57:19;;;;;;;25.55;7.10;;;;;;;28.32;38.08;100040.34;4797211;29;20051;-91
2022/08/14 11:59:45;;;;;;;;;;;;;;;28.64;34.52;100078.63;4785162;29;20066;-89
2022/08/14 12:02:32;;;;;;;;;;;;;;;28.73;38.06;100076.13;4781111;30;20391;-89
2022/08/14 12:04:59;;;;;;;11.95;5.90;;;;;;;28.43;37.75;99994.47;4743395;30;20498;-90
2022/08/14 12:07:59;;;;;;;;;;;;;;;29.05;36.97;100077.81;4779649;29;20052;-89
2022/08/14 12:10:27;;;;;;;18.85;5.88;;;;;;;29.01;37.49;100057.34;4791976;29;19959;-89
2022/08/14 12:12:56;;;;;;;8.50;5.70;;;;;;;29.08;36.60;100060.09;4797644;29;20174;-93
2022/08/14 12:15:37;;;;;;;20.17;5.78;;;;;;;28.62;36.47;99993.84;4798823;23;20051;-91
2022/08/14 12:19:08;;;;;;;17.70;5.82;;;;;;;29.32;36.46;100069.41;4861396;29;20101;-91
2022/08/14 12:22:02;;;;;;;33.40;7.40;;;;;;;29.52;36.69;100063.91;4841329;24;20081;-91
2022/08/14 12:24:29;;;;;;;15.15;5.90;;;;;;;29.24;35.80;100014.44;4852180;29;20038;-91
2022/08/14 12:26:56;;;;;;;23.52;7.03;;;;;;;29.12;36.81;99984.81;4836923;29;20045;-90
2022/08/14 12:29:40;;;;;;;7.25;5.40;;;;;;;29.49;36.08;100030.97;4867314;23;20109;-91
2022/08/14 12:33:07;;;;;;;17.08;6.30;;;;;;;29.80;34.49;100067.56;4857654;23;20062;-92
2022/08/14 12:36:32;;;;;;;14.05;6.85;;;;;;;29.86;34.83;100035.63;4848147;29;20050;-92
2022/08/14 12:39:22;;;;;;;9.57;5.55;;;;;;;29.92;32.75;100061.31;4810412;29;20054;-93
2022/08/14 12:45:48;;;;;;;17.45;6.13;;;;;;;29.83;31.95;100050.59;4945548;23;20161;-93
2022/08/14 12:48:18;;;;;;;11.70;6.22;;;;;;;29.19;35.51;99998.00;4859028;29;20113;-93
2022/08/14 12:53:48;;;;;;;12.18;6.47;;;;;;;28.86;36.78;100034.16;4832404;29;20049;-91
2022/08/14 12:57:52;;;;;;;9.32;5.90;;;;;;;28.44;36.54;99993.25;4833855;29;20045;-90
2022/08/14 13:00:25;;;;;;;10.73;6.47;;;;;;;28.36;38.02;100009.38;4761233;30;20056;-91
2022/08/14 13:02:58;;;;;;;14.13;6.40;;;;;;;28.02;39.02;99969.97;4732256;30;20074;-94
2022/08/14 13:05:56;;;;;;;25.88;6.38;;;;;;;28.50;38.74;100054.25;4761316;30;20060;-91
2022/08/14 13:08:24;;;;;;;11.85;6.28;;;;;;;28.20;39.10;99995.06;4841868;29;20125;-90
2022/08/14 13:11:17;;;;;;;13.10;6.53;;;;;;;28.24;39.42;100013.50;4871355;29;20161;-90
2022/08/14 13:13:46;;;;;;;27.25;7.13;;;;;;;28.44;39.62;100049.50;4864077;29;20587;-94
2022/08/14 13:16:15;;;;;;;26.98;7.07;;;;;;;28.25;39.88;100022.75;4833428;29;20080;-89
2022/08/14 13:18:45;;;;;;;20.35;6.85;;;;;;;28.33;39.55;100043.97;4832380;29;20053;-87
2022/08/14 13:21:17;;;;;;;27.38;7.10;;;;;;;28.12;40.33;100028.09;4850137;29;20131;-89
2022/08/14 13:23:45;;;;;;;18.13;6.35;;;;;;;28.02;39.98;100015.72;4855124;29;20148;-90
2022/08/14 13:26:23;;;;;;;23.02;6.88;;;;;;;27.92;40.41;99982.09;4846946;29;20045;-91
2022/08/14 13:29:22;;;;;;;27.98;6.63;;;;;;;28.26;41.14;100033.56;4846175;29;20045;-92
2022/08/14 13:31:54;;;;;;;32.38;7.40;;;;;;;28.22;37.91;100030.00;4823421;29;20094;-94
2022/08/14 13:38:06;;;;;;;51.47;8.35;;;;;;;28.37;38.26;100007.34;4844521;29;20047;-92
2022/08/14 13:41:01;;;;;;;12.68;5.80;;;;;;;28.65;38.00;100029.59;4842828;29;20070;-92
2022/08/14 13:43:31;;;;;;;18.65;6.20;;;;;;;28.46;37.73;99997.25;5002651;23;20108;-91
2022/08/14 13:45:58;;;;;;;9.90;6.18;;;;;;;28.40;38.47;99993.28;4866051;29;20048;-93
2022/08/14 13:48:25;;;;;;;18.63;6.15;;;;;;;28.27;37.53;99973.31;4844575;29;20041;-91
2022/08/14 13:50:55;;;;;;;12.65;6.00;;;;;;;28.31;38.34;99996.59;4867351;23;20073;-93
2022/08/14 13:53:24;;;;;;;16.33;6.07;;;;;;;28.23;36.12;99985.81;4862567;29;20044;-92
2022/08/14 13:55:57;;;;;;;16.95;6.40;;;;;;;28.18;37.36;99989.88;4848875;29;20412;-91
2022/08/14 13:58:26;;;;;;;16.33;6.60;;;;;;;28.29;39.79;100018.69;4849035;29;20064;-90
2022/08/14 14:01:22;;;;;;;29.35;6.60;;;;;;;28.22;38.36;100012.34;4851454;29;20141;-92
2022/08/14 14:04:48;;;;;;;20.38;6.28;;;;;;;28.00;38.14;99983.63;4874958;29;20060;-92
2022/08/14 14:07:19;;;;;;;16.90;6.70;;;;;;;27.96;39.66;99975.22;4833432;29;20073;-91
2022/08/14 14:09:55;;;;;;;10.55;6.30;;;;;;;27.82;39.97;99975.38;4862340;29;20511;-94
2022/08/14 14:13:07;;;;;;;28.25;7.65;;;;;;;28.03;39.16;100013.72;4848824;29;20049;-91
2022/08/14 14:15:36;;;;;;;17.17;6.30;;;;;;;27.87;39.35;100000.19;4864171;29;20515;-90
2022/08/14 14:18:04;;;;;;;17.00;6.25;;;;;;;27.64;40.40;99986.69;4842594;29;20139;-92
2022/08/14 14:20:50;;;;;;;15.70;6.38;;;;;;;27.55;41.45;99984.38;4849813;29;20041;-96
2022/08/14 14:23:16;;;;;;;11.10;6.13;;;;;;;27.55;41.01;99998.41;4832409;29;20148;-93
2022/08/14 14:26:12;;;;;;;21.58;7.18;;;;;;;27.74;40.24;100002.66;4832625;29;20185;-92
2022/08/14 14:28:43;;;;;;;37.33;8.52;;;;;;;27.80;40.07;100001.03;4824406;29;20148;-94
2022/08/14 14:31:13;;;;;;;28.15;7.55;;;;;;;27.51;39.15;99949.09;4832128;29;20087;-92
2022/08/14 14:33:47;;;;;;;18.80;8.77;;;;;;;27.79;40.71;99987.44;4824112;29;20059;-93
2022/08/14 14:36:43;;;;;;;26.85;7.28;;;;;;;27.70;39.28;99995.50;4818248;29;20146;-95
2022/08/14 14:42:19;;;;;;;18.48;7.18;;;;;;;27.66;39.30;99991.91;4888453;29;20048;-94
2022/08/14 14:45:01;;;;;;;16.77;8.15;;;;;;;27.30;41.92;99941.63;4866574;29;20518;-95
2022/08/14 14:47:59;;;;;;;23.90;7.75;;;;;;;27.46;40.70;99997.28;4861562;29;20053;-94
2022/08/14 14:50:27;;;;;;;22.67;6.88;;;;;;;27.13;39.93;99955.34;4884074;23;20055;-94
2022/08/14 14:53:46;;;;;;;12.90;7.07;;;;;;;26.67;40.09;99903.06;4881113;23;20086;-94
2022/08/14 14:56:14;;;;;;;17.38;7.30;;;;;;;27.10;40.66;99983.41;4850364;24;20057;-89
2022/08/14 14:58:43;;;;;;;40.90;12.80;;;;;;;27.03;41.44;99986.25;4848862;29;20094;-83
2022/08/14 15:01:10;;;;;;;48.35;13.73;;;;;;;26.96;41.73;99980.69;4822870;29;20075;-85
2022/08/14 15:03:38;;;;;;;54.20;12.57;;;;;;;26.87;42.18;99981.13;4831778;29;20075;-91
2022/08/14 15:06:43;;;;;;;71.63;12.43;;;;;;;26.35;42.17;99905.97;4835718;29;20087;-93
2022/08/14 15:09:13;;;;;;;54.95;10.73;;;;;;;26.34;43.81;99926.81;4858715;23;20065;-93
2022/08/14 15:11:45;;;;;;;63.70;14.63;;;;;;;26.62;43.72;99978.41;4858917;23;20544;-96
2022/08/14 15:14:13;;;;;;;109.50;24.42;;;;;;;26.46;43.01;99962.81;4850070;29;20144;-92
2022/08/14 15:17:13;;;;;;;180.48;40.42;;;;;;;26.21;42.59;99920.84;4848140;29;20045;-93
2022/08/14 15:20:45;;;;;;;214.80;49.58;;;;;;;26.48;43.49;99984.88;4839798;29;20042;-93
2022/08/14 15:23:15;;;;;;;198.20;42.42;;;;;;;26.06;44.49;99930.50;4839582;29;20049;-92
2022/08/14 15:25:51;;;;;;;168.07;40.10;;;;;;;25.94;47.38;99923.28;4805761;29;20062;-96
2022/08/14 15:28:47;;;;;;;;;;;;;;;26.22;48.27;99969.28;4807470;29;20052;-94
2022/08/14 15:31:17;;;;;;;109.30;20.83;;;;;;;25.86;50.19;99941.31;4824965;29;19928;-95
2022/08/14 15:36:29;;;;;;;123.00;29.23;;;;;;;25.48;49.76;99906.50;4823314;29;20039;-95
2022/08/14 15:38:57;;;;;;;109.53;30.30;;;;;;;25.72;50.26;99944.09;4799874;29;20042;-95
2022/08/14 15:41:49;;;;;;;133.02;34.83;;;;;;;25.52;50.83;99932.50;4822299;29;20500;-93
2022/08/14 15:44:49;;;;;;;90.60;32.15;;;;;;;25.87;50.83;99993.34;4845941;29;20523;-95
2022/08/14 15:50:21;;;;;;;83.47;25.30;;;;;;;25.58;51.08;99944.88;4849810;29;20054;-94
2022/08/14 15:53:16;;;;;;;74.35;25.90;;;;;;;25.90;51.43;99992.53;4809639;29;20050;-95
2022/08/14 15:55:54;;;;;;;79.05;22.65;;;;;;;25.55;51.32;99940.09;4826015;29;20049;-93
2022/08/14 15:59:11;;;;;;;75.95;21.42;;;;;;;25.89;52.58;99984.53;4847937;29;20053;-93
2022/08/14 16:02:46;;;;;;;100.50;22.10;;;;;;;25.84;53.54;99984.94;4829071;29;20050;-94
2022/08/14 16:05:30;;;;;;;116.75;29.75;;;;;;;25.38;53.78;99933.28;4812890;29;20053;-93
2022/08/14 16:07:57;;;;;;;94.85;32.80;;;;;;;25.68;53.73;99982.50;4862188;29;20038;-93
2022/08/14 16:10:27;;;;;;;81.45;32.72;;;;;;;25.45;54.04;99957.69;4800133;29;20046;-90
2022/08/14 16:13:05;;;;;;;84.43;43.25;;;;;;;25.46;54.28;99970.47;4851430;29;20042;-91
2022/08/14 16:15:59;;;;;;;99.82;51.70;;;;;;;25.41;54.56;99974.47;4802154;29;20038;-90
2022/08/14 16:18:26;;;;;;;106.95;55.80;;;;;;;25.40;54.65;99972.88;4725445;30;20056;-92
2022/08/14 16:21:10;;;;;;;115.00;57.47;;;;;;;25.41;55.18;99970.88;4750027;30;20111;-92
2022/08/14 16:23:42;;;;;;;122.70;63.13;;;;;;;25.48;55.51;99996.88;4730163;30;20059;-90
2022/08/14 16:26:19;;;;;;;152.00;64.88;;;;;;;25.40;55.57;99981.28;4735564;30;20052;-91
2022/08/14 16:29:40;;;;;;;131.82;67.55;;;;;;;25.30;54.63;99965.28;4756754;30;20139;-92
2022/08/14 16:32:12;;;;;;;139.98;63.05;;;;;;;25.43;53.52;99983.28;4748662;30;20044;-91
2022/08/14 16:34:41;;;;;;;101.10;49.67;;;;;;;25.49;51.40;99992.06;4744594;30;20148;-90
2022/08/14 16:37:11;;;;;;;89.88;48.83;;;;;;;25.47;51.03;99994.50;4761809;30;20048;-92
2022/08/14 16:40:03;;;;;;;82.47;42.08;;;;;;;25.42;49.89;99992.88;4740305;30;20055;-90
2022/08/14 16:45:25;;;;;;;163.00;57.90;;;;;;;25.31;50.16;100001.25;4762402;30;20115;-92
2022/08/14 16:47:52;;;;;;;172.77;69.85;;;;;;;25.05;50.52;99971.56;4767670;30;20052;-91
2022/08/14 16:50:25;;;;;;;192.45;80.38;;;;;;;25.19;50.68;100003.59;4754069;30;20044;-93
2022/08/14 16:52:52;;;;;;;167.82;75.70;;;;;;;24.89;49.42;99962.72;4755895;30;20052;-90
2022/08/14 16:55:19;;;;;;;143.40;65.00;;;;;;;24.94;49.01;99979.13;4786458;29;20054;-92
2022/08/14 16:58:14;;;;;;;108.63;50.95;;;;;;;25.03;47.64;100003.91;4833931;29;20076;-90
2022/08/14 17:00:40;;;;;;;165.35;45.22;;;;;;;24.99;47.90;100003.09;4794840;29;20132;-90
2022/08/14 17:03:12;;;;;;;144.95;47.63;;;;;;;24.92;48.34;100003.88;4812882;29;20046;-88
2022/08/14 17:05:42;;;;;;;101.93;43.75;;;;;;;24.84;48.58;99991.09;4816598;29;20042;-89
2022/08/14 17:08:14;;;;;;;112.25;42.90;;;;;;;24.67;49.00;99987.00;4817782;29;20533;-91
2022/08/14 17:13:35;;;;;;;96.53;32.47;;;;;;;24.44;52.94;99997.69;4807772;29;20059;-90